ENCN/KRS METAR and TAF weather

Enter ICAO airport designator
Station Type Date Time Source
ENCN METAR 2019/08/25 02:50 UTC NOAA

ENCN 250250Z AUTO 05004KT 9999 BKN044/// 14/14 Q1024


Station Type Date Time Source
ENCN Decoded METAR 2019/08/25 02:50 UTC NOAA

Station name not available
Aug 24, 2019 - 10:50 PM EDT / 2019.08.25 0250 UTC
Wind: from the NE (050 degrees) at 5 MPH (4 KT):0
Visibility: greater than 7 mile(s):0
Sky conditions: mostly cloudy
Temperature: 57 F (14 C)
Dew Point: 57 F (14 C)
Relative Humidity: 100%
Pressure (altimeter): 30.24 in. Hg (1024 hPa)
ob: ENCN 250250Z AUTO 05004KT 9999 BKN044/// 14/14 Q1024
cycle: 3

Station Type Date Time Source
ENCN TAF 2016/05/06 12:39 UTC NOAA

TAF TAF ENCN 061100Z 0612/0712 14008KT 9999 FEW040

Example: see airport list